Lochailort, United Kingdom
Current Conditions -  °F | °C
As of 10:20 AM on Sunday 25 Jan 2015 (Local Time) from EGPU Reporting Station
Overcast Overcast  
Wind Chill: 50°   Ceiling: 400
Heat Index: 50°   Visibility: 4mi
Dew Point: 48°   Wind: 29mph
Humidity: 94%   Direction: 220°SW
Pressure: 29.97"   Gusts: 40mph
Location:  56.87°N, 5.66°W
Report Text: EGPU 251020Z AUTO 22025G35KT 180V240 6000 OVC004/// 10/09 Q1015
Loading
Personal Weather Stations






























Interactive Weather Map New forecast layout! Learn more

10-Day Weather Forecast

Advertisements
Track Severe Weather on mobile